OBBI/BAH METAR and TAF weather

Enter ICAO airport designator
Station Type Date Time Source
OBBI METAR 2019/07/20 05:00 UTC NOAA

OBBI 200500Z 31003KT 250V020 CAVOK 34/26 Q0999 NOSIG


Station Type Date Time Source
OBBI Decoded METAR 2019/07/20 05:00 UTC NOAA

Bahrain International Airport , Bahrain (OBBI) 26-16N 050-39E 2M
Jul 20, 2019 - 01:00 AM EDT / 2019.07.20 0500 UTC
Wind: from the NW (310 degrees) at 3 MPH (3 KT) (direction variable):0
Visibility: greater than 7 mile(s):0
Temperature: 93 F (34 C)
Heat index: 109.6 F (43.1 C):1
Dew Point: 78 F (26 C)
Relative Humidity: 63%
Pressure (altimeter): 29.50 in. Hg (0999 hPa)
ob: OBBI 200500Z 31003KT 250V020 CAVOK 34/26 Q0999 NOSIG
cycle: 5

Station Type Date Time Source
OBBI TAF 2019/07/20 06:55 UTC NOAA

TAF OBBI 200500Z 2006/2112 35010KT CAVOK
BECMG 2016/2018 VRB05KT

Example: see airport list